Time;durP1;ratioP1;P1;durP2;ratioP2;P2;SDS_P1;SDS_P2;PMS_P1;PMS_P2;Temp;Humidity;BMP_temperature;BMP_pressure;BME280_temperature;BME280_humidity;BME280_pressure;Samples;Min_cycle;Max_cycle;Signal;HPM_P1;HPM_P2
2021/04/25 00:01:58;;;;;;;8.85;4.30;;;;;;;;;;5108923;28;20020;-64
2021/04/25 00:04:24;;;;;;;11.18;4.70;;;;;;;;;;5109128;28;20024;-64
2021/04/25 00:06:50;;;;;;;12.50;5.60;;;;;;;;;;5099321;28;20368;-64
2021/04/25 00:09:16;;;;;;;11.90;5.53;;;;;;;;;;5095201;28;20546;-64
2021/04/25 00:11:42;;;;;;;8.85;4.78;;;;;;;;;;5094240;28;20463;-64
2021/04/25 00:14:09;;;;;;;7.28;4.57;;;;;;;;;;5095420;28;20031;-64
2021/04/25 00:16:35;;;;;;;8.57;4.85;;;;;;;;;;5095093;28;20028;-65
2021/04/25 00:19:04;;;;;;;13.98;5.47;;;;;;;;;;5095660;28;20020;-65
2021/04/25 00:21:30;;;;;;;7.50;4.47;;;;;;;;;;5094026;28;20078;-64
2021/04/25 00:23:56;;;;;;;8.85;4.30;;;;;;;;;;5094922;28;20479;-65
2021/04/25 00:26:22;;;;;;;8.88;4.15;;;;;;;;;;5095185;28;20024;-65
2021/04/25 00:28:48;;;;;;;11.73;5.07;;;;;;;;;;5093889;28;20040;-65
2021/04/25 00:31:15;;;;;;;12.85;5.30;;;;;;;;;;5093465;28;20085;-65
2021/04/25 00:33:41;;;;;;;8.60;4.03;;;;;;;;;;5093721;28;20115;-64
2021/04/25 00:36:07;;;;;;;8.52;4.35;;;;;;;;;;5094084;28;20024;-64
2021/04/25 00:38:33;;;;;;;9.52;4.78;;;;;;;;;;5094808;28;20049;-64
2021/04/25 00:41:00;;;;;;;13.32;6.20;;;;;;;;;;5093859;28;20102;-64
2021/04/25 00:43:26;;;;;;;11.50;5.20;;;;;;;;;;5094913;28;20024;-65
2021/04/25 00:45:52;;;;;;;11.13;5.25;;;;;;;;;;5093148;28;20077;-64
2021/04/25 00:48:18;;;;;;;11.07;5.30;;;;;;;;;;5094760;28;20035;-64
2021/04/25 00:50:44;;;;;;;9.75;4.82;;;;;;;;;;5094771;28;20020;-64
2021/04/25 00:53:11;;;;;;;12.77;4.78;;;;;;;;;;5094273;28;20031;-64
2021/04/25 00:55:37;;;;;;;8.43;4.45;;;;;;;;;;5094464;28;20063;-64
2021/04/25 00:58:04;;;;;;;10.88;5.60;;;;;;;;;;5094790;28;20062;-64
2021/04/25 01:00:31;;;;;;;11.85;5.18;;;;;;;;;;5093132;28;20024;-64
2021/04/25 01:02:57;;;;;;;9.70;4.55;;;;;;;;;;5094509;28;20038;-64
2021/04/25 01:05:24;;;;;;;10.68;4.80;;;;;;;;;;5094064;28;20384;-64
2021/04/25 01:07:50;;;;;;;11.40;4.10;;;;;;;;;;5094413;28;20404;-64
2021/04/25 01:10:17;;;;;;;11.43;4.82;;;;;;;;;;5094399;28;20024;-64
2021/04/25 01:12:44;;;;;;;10.07;4.60;;;;;;;;;;5093985;28;20092;-64
2021/04/25 01:15:11;;;;;;;7.35;4.60;;;;;;;;;;5092955;28;20028;-65
2021/04/25 01:17:41;;;;;;;9.20;4.50;;;;;;;;;;5093440;28;20020;-64
2021/04/25 01:20:08;;;;;;;8.32;4.50;;;;;;;;;;5092632;28;20024;-64
2021/04/25 01:22:35;;;;;;;10.07;4.85;;;;;;;;;;5094184;28;20361;-64
2021/04/25 01:25:01;;;;;;;15.43;5.90;;;;;;;;;;5092825;28;20051;-65
2021/04/25 01:27:28;;;;;;;12.90;5.80;;;;;;;;;;5092367;28;20027;-65
2021/04/25 01:29:54;;;;;;;10.75;5.70;;;;;;;;;;5092607;28;20034;-65
2021/04/25 01:32:20;;;;;;;13.45;5.70;;;;;;;;;;5094017;28;20055;-65
2021/04/25 01:34:46;;;;;;;9.95;5.13;;;;;;;;;;5093407;28;20028;-65
2021/04/25 01:37:13;;;;;;;10.05;4.93;;;;;;;;;;5094000;28;20058;-64
2021/04/25 01:39:39;;;;;;;10.65;5.35;;;;;;;;;;5092661;28;20055;-66
2021/04/25 01:42:05;;;;;;;10.27;5.30;;;;;;;;;;5092096;28;20024;-64
2021/04/25 01:44:31;;;;;;;6.10;4.07;;;;;;;;;;5093713;28;20068;-64
2021/04/25 01:46:58;;;;;;;8.75;4.90;;;;;;;;;;5093744;28;20379;-64
2021/04/25 01:49:24;;;;;;;10.10;5.03;;;;;;;;;;5091895;28;20082;-64
2021/04/25 01:51:50;;;;;;;10.65;4.72;;;;;;;;;;5092348;28;20044;-65
2021/04/25 01:54:16;;;;;;;8.98;4.40;;;;;;;;;;5093262;28;20101;-65
2021/04/25 01:56:42;;;;;;;12.95;6.05;;;;;;;;;;5091880;28;20039;-64
2021/04/25 01:59:08;;;;;;;11.82;5.05;;;;;;;;;;5093726;28;20044;-64
2021/04/25 02:01:35;;;;;;;12.18;5.47;;;;;;;;;;5093091;28;20028;-65
2021/04/25 02:04:01;;;;;;;12.65;5.32;;;;;;;;;;5093438;28;20435;-65
2021/04/25 02:06:27;;;;;;;10.95;5.75;;;;;;;;;;5091984;28;20107;-65
2021/04/25 02:08:54;;;;;;;9.77;5.05;;;;;;;;;;5092902;28;20026;-64
2021/04/25 02:11:20;;;;;;;12.32;4.65;;;;;;;;;;5093194;28;20095;-65
2021/04/25 02:13:46;;;;;;;9.07;4.13;;;;;;;;;;5093112;28;20047;-64
2021/04/25 02:16:13;;;;;;;13.43;5.63;;;;;;;;;;5091592;28;20075;-64
2021/04/25 02:18:39;;;;;;;9.63;5.45;;;;;;;;;;5092087;28;20027;-64
2021/04/25 02:21:06;;;;;;;11.98;4.35;;;;;;;;;;5093086;28;20391;-64
2021/04/25 02:23:32;;;;;;;8.30;3.88;;;;;;;;;;5092689;28;20030;-64
2021/04/25 02:25:58;;;;;;;8.27;4.45;;;;;;;;;;5093026;28;20484;-64
2021/04/25 02:28:25;;;;;;;7.78;4.10;;;;;;;;;;5092970;28;20028;-64
2021/04/25 02:30:51;;;;;;;11.18;5.30;;;;;;;;;;5092391;28;20012;-64
2021/04/25 02:33:17;;;;;;;9.20;4.70;;;;;;;;;;5092913;28;20050;-64
2021/04/25 02:35:43;;;;;;;9.13;4.60;;;;;;;;;;5093044;28;20043;-64
2021/04/25 02:38:10;;;;;;;8.50;4.72;;;;;;;;;;5091165;28;20020;-64
2021/04/25 02:40:36;;;;;;;8.75;4.13;;;;;;;;;;5091438;28;20021;-64
2021/04/25 02:43:03;;;;;;;9.93;4.63;;;;;;;;;;5091488;28;20046;-64
2021/04/25 02:45:30;;;;;;;10.48;4.18;;;;;;;;;;5092459;28;20024;-64
2021/04/25 02:47:57;;;;;;;10.38;5.40;;;;;;;;;;5092720;28;20430;-64
2021/04/25 02:50:25;;;;;;;9.02;4.82;;;;;;;;;;5092701;28;20024;-64
2021/04/25 02:52:51;;;;;;;9.70;5.22;;;;;;;;;;5092266;28;20030;-64
2021/04/25 02:55:17;;;;;;;10.10;5.30;;;;;;;;;;5092564;28;20075;-64
2021/04/25 02:57:43;;;;;;;12.88;5.55;;;;;;;;;;5091304;28;20016;-64
2021/04/25 03:00:15;;;;;;;9.60;4.95;;;;;;;;;;5091318;28;20028;-64
2021/04/25 03:02:41;;;;;;;11.98;5.40;;;;;;;;;;5092564;28;20102;-64
2021/04/25 03:05:07;;;;;;;12.85;5.40;;;;;;;;;;5092220;28;20035;-65
2021/04/25 03:07:34;;;;;;;13.60;5.28;;;;;;;;;;5092887;28;20076;-64
2021/04/25 03:10:00;;;;;;;10.20;5.68;;;;;;;;;;5092532;28;20024;-64
2021/04/25 03:12:26;;;;;;;9.43;4.30;;;;;;;;;;5092139;28;20507;-64
2021/04/25 03:14:52;;;;;;;12.90;5.28;;;;;;;;;;5092489;28;20036;-65
2021/04/25 03:17:19;;;;;;;9.43;5.30;;;;;;;;;;5092737;28;20361;-65
2021/04/25 03:19:45;;;;;;;8.30;4.30;;;;;;;;;;5092025;28;20099;-65
2021/04/25 03:22:12;;;;;;;11.85;5.28;;;;;;;;;;5092424;28;20017;-64
2021/04/25 03:24:38;;;;;;;14.82;5.10;;;;;;;;;;5092434;28;20434;-65
2021/04/25 03:27:04;;;;;;;9.35;4.95;;;;;;;;;;5090727;28;20107;-64
2021/04/25 03:29:30;;;;;;;14.25;6.25;;;;;;;;;;5092246;28;20027;-65
2021/04/25 03:31:56;;;;;;;10.43;5.47;;;;;;;;;;5091019;28;20027;-65
2021/04/25 03:34:23;;;;;;;12.73;7.00;;;;;;;;;;5090824;28;20028;-64
2021/04/25 03:36:49;;;;;;;11.25;5.93;;;;;;;;;;5092547;28;20035;-65
2021/04/25 03:39:15;;;;;;;17.05;7.63;;;;;;;;;;5090927;28;20078;-65
2021/04/25 03:41:41;;;;;;;13.75;6.93;;;;;;;;;;5093575;28;20375;-64
2021/04/25 03:44:09;;;;;;;11.07;6.05;;;;;;;;;;5096125;28;20400;-65
2021/04/25 03:46:35;;;;;;;13.05;5.85;;;;;;;;;;5096038;28;20335;-65
2021/04/25 03:49:03;;;;;;;11.63;5.38;;;;;;;;;;5095595;28;20433;-64
2021/04/25 03:51:29;;;;;;;10.23;5.80;;;;;;;;;;5095873;28;20024;-65
2021/04/25 03:53:55;;;;;;;12.32;6.80;;;;;;;;;;5095687;28;20376;-66
2021/04/25 03:56:21;;;;;;;12.70;6.20;;;;;;;;;;5094377;28;20110;-64
2021/04/25 03:58:47;;;;;;;14.70;6.70;;;;;;;;;;5095817;28;20016;-64
2021/04/25 04:01:13;;;;;;;13.07;6.75;;;;;;;;;;5095340;28;20032;-65
2021/04/25 04:03:39;;;;;;;12.95;6.57;;;;;;;;;;5094414;28;20042;-64
2021/04/25 04:06:06;;;;;;;17.77;7.40;;;;;;;;;;5095588;28;20066;-64
2021/04/25 04:08:32;;;;;;;14.65;6.57;;;;;;;;;;5095211;28;20024;-65
2021/04/25 04:10:58;;;;;;;12.27;5.65;;;;;;;;;;5095530;28;20020;-64
2021/04/25 04:13:24;;;;;;;17.65;7.13;;;;;;;;;;5095560;28;20050;-64
2021/04/25 04:15:50;;;;;;;12.75;5.65;;;;;;;;;;5094230;28;20063;-65
2021/04/25 04:18:17;;;;;;;9.10;5.05;;;;;;;;;;5095442;28;20441;-64
2021/04/25 04:20:43;;;;;;;10.07;5.38;;;;;;;;;;5094165;28;20056;-64
2021/04/25 04:23:09;;;;;;;9.82;5.60;;;;;;;;;;5093633;28;20069;-64
2021/04/25 04:25:35;;;;;;;9.88;4.43;;;;;;;;;;5095284;28;20121;-64
2021/04/25 04:28:01;;;;;;;13.98;7.50;;;;;;;;;;5095220;28;20012;-64
2021/04/25 04:30:28;;;;;;;14.02;7.30;;;;;;;;;;5095027;28;20024;-64
2021/04/25 04:32:54;;;;;;;15.35;7.05;;;;;;;;;;5095381;28;20027;-64
2021/04/25 04:35:21;;;;;;;13.68;6.43;;;;;;;;;;5095593;28;20036;-64
2021/04/25 04:37:47;;;;;;;14.20;7.00;;;;;;;;;;5094971;28;20024;-65
2021/04/25 04:40:14;;;;;;;13.48;6.47;;;;;;;;;;5093797;28;20024;-64
2021/04/25 04:42:40;;;;;;;13.02;7.38;;;;;;;;;;5093592;28;20024;-64
2021/04/25 04:45:07;;;;;;;14.52;8.60;;;;;;;;;;5094600;28;20035;-64
2021/04/25 04:47:33;;;;;;;15.18;9.93;;;;;;;;;;5094862;28;20529;-64
2021/04/25 04:49:59;;;;;;;18.45;9.57;;;;;;;;;;5094817;28;20032;-64
2021/04/25 04:52:25;;;;;;;21.70;10.65;;;;;;;;;;5094234;28;20016;-64
2021/04/25 04:54:52;;;;;;;17.80;9.73;;;;;;;;;;5093209;28;20055;-64
2021/04/25 04:57:18;;;;;;;16.23;8.07;;;;;;;;;;5094546;28;20081;-64
2021/04/25 04:59:44;;;;;;;14.13;7.03;;;;;;;;;;5093472;28;20102;-64
2021/04/25 05:02:10;;;;;;;9.63;5.82;;;;;;;;;;5094624;28;20095;-64
2021/04/25 05:04:36;;;;;;;14.38;5.97;;;;;;;;;;5094106;28;20467;-64
2021/04/25 05:07:03;;;;;;;10.90;5.95;;;;;;;;;;5094520;28;20050;-64
2021/04/25 05:09:29;;;;;;;13.55;6.68;;;;;;;;;;5093334;28;20395;-64
2021/04/25 05:11:58;;;;;;;13.05;5.47;;;;;;;;;;5094047;28;20020;-64
2021/04/25 05:14:25;;;;;;;11.85;5.45;;;;;;;;;;5092980;28;20024;-65
2021/04/25 05:16:51;;;;;;;10.73;6.25;;;;;;;;;;5093140;28;20032;-64
2021/04/25 05:19:17;;;;;;;13.55;6.38;;;;;;;;;;5094094;28;20027;-64
2021/04/25 05:21:43;;;;;;;11.00;5.18;;;;;;;;;;5094124;28;20028;-66
2021/04/25 05:24:10;;;;;;;9.18;4.60;;;;;;;;;;5094089;28;20020;-65
2021/04/25 05:26:36;;;;;;;10.02;4.65;;;;;;;;;;5093723;28;20026;-65
2021/04/25 05:29:03;;;;;;;8.40;4.68;;;;;;;;;;5094065;28;20115;-65
2021/04/25 05:31:29;;;;;;;11.98;5.70;;;;;;;;;;5093964;28;20028;-65
2021/04/25 05:33:55;;;;;;;9.45;5.28;;;;;;;;;;5093431;28;20082;-65
2021/04/25 05:36:21;;;;;;;11.80;6.97;;;;;;;;;;5094125;28;20100;-65
2021/04/25 05:38:47;;;;;;;14.00;7.03;;;;;;;;;;5094020;28;20499;-65
2021/04/25 05:41:13;;;;;;;11.95;5.80;;;;;;;;;;5092098;28;20031;-65
2021/04/25 05:43:40;;;;;;;10.98;5.82;;;;;;;;;;5093732;28;20464;-65
2021/04/25 05:46:06;;;;;;;10.70;5.43;;;;;;;;;;5093611;28;20024;-66
2021/04/25 05:48:32;;;;;;;13.25;6.82;;;;;;;;;;5093180;28;20081;-65
2021/04/25 05:50:58;;;;;;;13.02;5.03;;;;;;;;;;5093574;28;20020;-66
2021/04/25 05:53:24;;;;;;;9.40;3.75;;;;;;;;;;5093493;28;20541;-66
2021/04/25 05:55:51;;;;;;;12.32;5.35;;;;;;;;;;5093039;28;20092;-65
2021/04/25 05:58:17;;;;;;;13.50;5.50;;;;;;;;;;5092244;28;20047;-65
2021/04/25 06:00:43;;;;;;;9.38;4.50;;;;;;;;;;5092954;28;20024;-65
2021/04/25 06:03:09;;;;;;;10.18;5.63;;;;;;;;;;5093351;28;20387;-65
2021/04/25 06:05:35;;;;;;;11.07;5.35;;;;;;;;;;5093045;28;20488;-65
2021/04/25 06:08:02;;;;;;;12.80;5.15;;;;;;;;;;5091706;28;20031;-65
2021/04/25 06:10:28;;;;;;;10.57;5.07;;;;;;;;;;5093220;28;20069;-65
2021/04/25 06:12:54;;;;;;;13.15;6.13;;;;;;;;;;5093195;28;20021;-65
2021/04/25 06:15:22;;;;;;;8.45;4.60;;;;;;;;;;5091522;28;20049;-65
2021/04/25 06:17:49;;;;;;;10.43;4.53;;;;;;;;;;5093382;28;20433;-65
2021/04/25 06:21:42;;;;;;;13.75;6.28;;;;;;;;;;5110033;27;20418;-64
2021/04/25 06:24:09;;;;;;;13.07;6.13;;;;;;;;;;5110492;28;20028;-63
2021/04/25 06:26:35;;;;;;;12.15;5.60;;;;;;;;;;5110338;28;20025;-64
2021/04/25 06:31:02;;;;;;;12.43;6.28;;;;;;;;;;5110142;27;20385;-65
2021/04/25 06:34:16;;;;;;;17.02;5.85;;;;;;;;;;5110470;27;20937;-64
2021/04/25 06:36:43;;;;;;;14.60;7.13;;;;;;;;;;5110143;28;20468;-64
2021/04/25 06:39:10;;;;;;;11.63;5.80;;;;;;;;;;5109255;28;20058;-64
2021/04/25 06:43:38;;;;;;;9.95;4.53;;;;;;;;;;5109929;27;20384;-65
2021/04/25 06:46:04;;;;;;;12.80;4.93;;;;;;;;;;5110393;28;20040;-66
2021/04/25 06:48:30;;;;;;;10.77;4.82;;;;;;;;;;5108978;28;20020;-65
2021/04/25 06:50:56;;;;;;;14.15;5.95;;;;;;;;;;5109956;28;20024;-65
2021/04/25 06:53:22;;;;;;;11.57;5.93;;;;;;;;;;5109020;28;20356;-65
2021/04/25 06:55:49;;;;;;;14.98;6.03;;;;;;;;;;5110401;28;20048;-65
2021/04/25 06:58:15;;;;;;;13.45;7.35;;;;;;;;;;5108864;28;20032;-65
2021/04/25 07:00:41;;;;;;;12.85;6.45;;;;;;;;;;5110172;28;20023;-65
2021/04/25 07:03:07;;;;;;;12.30;5.57;;;;;;;;;;5109891;28;20053;-65
2021/04/25 07:06:59;;;;;;;16.50;6.68;;;;;;;;;;5110462;27;20415;-64
2021/04/25 07:10:56;;;;;;;11.13;5.85;;;;;;;;;;5069514;28;20437;-64
2021/04/25 07:15:29;;;;;;;12.30;6.05;;;;;;;;;;5110572;27;20961;-65
2021/04/25 07:17:56;;;;;;;13.88;5.68;;;;;;;;;;5109059;28;20051;-65
2021/04/25 07:20:24;;;;;;;11.57;5.38;;;;;;;;;;5110424;28;20016;-65
2021/04/25 07:22:51;;;;;;;11.63;5.95;;;;;;;;;;5109129;28;20399;-66
2021/04/25 07:25:17;;;;;;;11.63;5.63;;;;;;;;;;5109910;28;20097;-65
2021/04/25 07:29:13;;;;;;;10.50;5.55;;;;;;;;;;5069755;28;20392;-64
2021/04/25 07:31:39;;;;;;;9.38;5.00;;;;;;;;;;5069928;28;20021;-64
2021/04/25 07:36:08;;;;;;;13.07;6.25;;;;;;;;;;5110717;27;20900;-64
2021/04/25 07:40:09;;;;;;;13.82;5.65;;;;;;;;;;5110226;27;20434;-64
2021/04/25 07:42:36;;;;;;;9.40;4.10;;;;;;;;;;5110462;28;20430;-66
2021/04/25 07:45:04;;;;;;;12.05;5.47;;;;;;;;;;5109083;28;20032;-65
2021/04/25 07:47:30;;;;;;;10.65;5.22;;;;;;;;;;5108600;28;20055;-65
2021/04/25 07:52:05;;;;;;;22.65;10.27;;;;;;;;;;5110347;27;20381;-64
2021/04/25 07:54:31;;;;;;;14.20;5.82;;;;;;;;;;5109966;28;20034;-64
2021/04/25 07:56:58;;;;;;;14.43;5.18;;;;;;;;;;5110562;28;20095;-64
2021/04/25 08:00:20;;;;;;;9.65;3.80;;;;;;;;;;5110011;27;20793;-64
2021/04/25 08:02:46;;;;;;;8.10;3.85;;;;;;;;;;5108959;28;20028;-64
2021/04/25 08:05:13;;;;;;;8.93;3.83;;;;;;;;;;5109895;28;20032;-65
2021/04/25 08:07:39;;;;;;;7.80;4.63;;;;;;;;;;5108195;28;20468;-65
2021/04/25 08:12:49;;;;;;;11.00;4.68;;;;;;;;;;5110216;27;20380;-64
2021/04/25 08:17:34;;;;;;;9.18;4.15;;;;;;;;;;5110514;27;20442;-64
2021/04/25 08:20:01;;;;;;;5.45;2.85;;;;;;;;;;5110376;28;20031;-64
2021/04/25 08:24:24;;;;;;;6.88;3.22;;;;;;;;;;5110362;27;20406;-64
2021/04/25 08:26:52;;;;;;;6.65;2.60;;;;;;;;;;5110442;28;20054;-66
2021/04/25 08:29:18;;;;;;;7.88;3.35;;;;;;;;;;5109933;28;20024;-64
2021/04/25 08:31:44;;;;;;;7.30;3.00;;;;;;;;;;5110316;28;20369;-65
2021/04/25 08:34:10;;;;;;;7.38;3.17;;;;;;;;;;5110261;28;20028;-64
2021/04/25 08:38:07;;;;;;;7.53;2.70;;;;;;;;;;5110551;27;20392;-66
2021/04/25 08:40:33;;;;;;;6.78;3.15;;;;;;;;;;5110541;28;20027;-66
2021/04/25 08:43:00;;;;;;;4.82;2.05;;;;;;;;;;5110032;28;20020;-64
2021/04/25 08:45:27;;;;;;;5.00;2.35;;;;;;;;;;5110370;28;20078;-65
2021/04/25 08:49:56;;;;;;;6.18;2.88;;;;;;;;;;5069527;28;20387;-65
2021/04/25 08:52:23;;;;;;;16.05;2.83;;;;;;;;;;5070033;28;20107;-64
2021/04/25 08:56:00;;;;;;;6.28;3.22;;;;;;;;;;5069983;28;20480;-65
2021/04/25 08:58:26;;;;;;;5.65;2.13;;;;;;;;;;5069771;28;20029;-67
2021/04/25 09:01:23;;;;;;;6.60;2.80;;;;;;;;;;5110400;27;20434;-65
2021/04/25 09:03:49;;;;;;;8.80;3.30;;;;;;;;;;5108683;28;20043;-65
2021/04/25 09:08:08;;;;;;;4.95;2.10;;;;;;;;;;5151542;27;20342;-64
2021/04/25 09:10:36;;;;;;;10.75;2.78;;;;;;;;;;5112651;28;20471;-65
2021/04/25 09:13:22;;;;;;;4.47;2.20;;;;;;;;;;5112160;28;20134;-65
2021/04/25 09:15:52;;;;;;;4.13;1.98;;;;;;;;;;5130953;28;20019;-65
2021/04/25 09:18:30;;;;;;;4.05;1.98;;;;;;;;;;5130362;28;20490;-66
2021/04/25 09:22:45;;;;;;;5.15;2.65;;;;;;;;;;5110487;27;20381;-66
2021/04/25 09:25:14;;;;;;;8.63;4.43;;;;;;;;;;5109998;28;20054;-65
2021/04/25 09:27:43;;;;;;;13.45;4.85;;;;;;;;;;5110262;28;20479;-65
2021/04/25 09:32:35;;;;;;;6.22;2.50;;;;;;;;;;5110055;27;20406;-66
2021/04/25 09:37:14;;;;;;;5.15;2.38;;;;;;;;;;5110271;27;20431;-65
2021/04/25 09:39:58;;;;;;;7.47;3.15;;;;;;;;;;5110192;28;20028;-66
2021/04/25 09:43:46;;;;;;;5.05;2.33;;;;;;;;;;5110175;27;20883;-64
2021/04/25 09:46:12;;;;;;;5.68;2.15;;;;;;;;;;5110243;28;20032;-66
2021/04/25 09:48:42;;;;;;;3.33;1.63;;;;;;;;;;5110468;28;20023;-66
2021/04/25 09:51:09;;;;;;;6.22;2.35;;;;;;;;;;5110304;28;20028;-64
2021/04/25 09:55:18;;;;;;;3.45;1.50;;;;;;;;;;5110159;27;20385;-64
2021/04/25 09:57:45;;;;;;;4.95;1.42;;;;;;;;;;5110358;28;20081;-64
2021/04/25 10:00:12;;;;;;;4.13;1.65;;;;;;;;;;5108941;28;20030;-65
2021/04/25 10:02:56;;;;;;;5.10;2.03;;;;;;;;;;5110250;28;20023;-65
2021/04/25 10:07:20;;;;;;;6.97;1.83;;;;;;;;;;5110153;27;20786;-64
2021/04/25 10:09:47;;;;;;;4.95;1.90;;;;;;;;;;5110380;28;20020;-66
2021/04/25 10:12:13;;;;;;;6.45;2.17;;;;;;;;;;5110564;28;20041;-65
2021/04/25 10:16:19;;;;;;;4.93;1.88;;;;;;;;;;5109928;27;20158;-64
2021/04/25 10:19:31;;;;;;;3.70;1.55;;;;;;;;;;5069926;28;20388;-64
2021/04/25 10:21:58;;;;;;;4.53;2.10;;;;;;;;;;5067962;28;20025;-64
2021/04/25 10:24:24;;;;;;;4.32;1.50;;;;;;;;;;5068523;28;20500;-64
2021/04/25 10:28:25;;;;;;;3.47;1.90;;;;;;;;;;5109896;27;20385;-65
2021/04/25 10:30:51;;;;;;;3.05;1.58;;;;;;;;;;5110440;28;20028;-65
2021/04/25 10:35:17;;;;;;;4.78;1.88;;;;;;;;;;5110181;27;20430;-64
2021/04/25 10:37:43;;;;;;;4.28;1.90;;;;;;;;;;5109429;28;20024;-64
2021/04/25 10:40:18;;;;;;;9.95;2.63;;;;;;;;;;5110348;28;20031;-64
2021/04/25 10:42:55;;;;;;;3.67;1.70;;;;;;;;;;5109932;28;20043;-64
2021/04/25 10:45:30;;;;;;;2.85;1.60;;;;;;;;;;5110247;28;20027;-64
2021/04/25 10:48:15;;;;;;;5.53;1.92;;;;;;;;;;5110201;28;20035;-64
2021/04/25 10:50:42;;;;;;;5.68;2.00;;;;;;;;;;5108562;28;20020;-65
2021/04/25 10:53:21;;;;;;;9.85;4.28;;;;;;;;;;5110355;28;20024;-65
2021/04/25 10:55:49;;;;;;;5.10;2.17;;;;;;;;;;5110195;28;20109;-66
2021/04/25 10:58:15;;;;;;;4.63;1.70;;;;;;;;;;5108302;28;20026;-66
2021/04/25 11:00:42;;;;;;;2.47;1.30;;;;;;;;;;5108696;28;20079;-64
2021/04/25 11:03:19;;;;;;;1.95;1.38;;;;;;;;;;5069513;28;20388;-64
2021/04/25 11:05:46;;;;;;;4.57;2.03;;;;;;;;;;5069839;28;20032;-64
2021/04/25 11:08:16;;;;;;;4.78;1.80;;;;;;;;;;5069811;28;20025;-65
2021/04/25 11:10:47;;;;;;;2.97;1.88;;;;;;;;;;5069471;28;20086;-65
2021/04/25 11:13:32;;;;;;;2.75;1.52;;;;;;;;;;5068578;28;20024;-65
2021/04/25 11:16:00;;;;;;;3.63;1.33;;;;;;;;;;5068260;28;20552;-65
2021/04/25 11:18:46;;;;;;;4.57;2.22;;;;;;;;;;5069199;28;20024;-65
2021/04/25 11:21:44;;;;;;;4.20;1.83;;;;;;;;;;5068078;28;20029;-65
2021/04/25 11:24:10;;;;;;;8.90;3.83;;;;;;;;;;5069562;28;20103;-65
2021/04/25 11:26:40;;;;;;;4.88;2.20;;;;;;;;;;5069075;28;20033;-65
2021/04/25 11:29:10;;;;;;;4.05;2.45;;;;;;;;;;5069421;28;20028;-65
2021/04/25 11:31:46;;;;;;;2.97;1.55;;;;;;;;;;5069058;28;20488;-65
2021/04/25 11:34:28;;;;;;;3.60;1.30;;;;;;;;;;5069506;28;20039;-65
2021/04/25 11:36:55;;;;;;;2.05;1.17;;;;;;;;;;5069327;28;20024;-65
2021/04/25 11:39:24;;;;;;;4.63;1.83;;;;;;;;;;5068877;28;20025;-65
2021/04/25 11:41:52;;;;;;;5.20;2.75;;;;;;;;;;5067801;28;20564;-65
2021/04/25 11:44:31;;;;;;;2.75;1.40;;;;;;;;;;5067751;28;20056;-65
2021/04/25 11:46:58;;;;;;;3.08;1.38;;;;;;;;;;5068631;28;20564;-65
2021/04/25 11:49:39;;;;;;;4.50;1.63;;;;;;;;;;5067836;28;20120;-65
2021/04/25 11:52:12;;;;;;;5.38;1.27;;;;;;;;;;5069157;28;20016;-65
2021/04/25 11:54:39;;;;;;;3.53;1.50;;;;;;;;;;5068621;28;20487;-65
2021/04/25 11:57:12;;;;;;;4.25;1.48;;;;;;;;;;5068734;28;20025;-65
2021/04/25 11:59:52;;;;;;;2.60;1.17;;;;;;;;;;5068614;28;20075;-65
2021/04/25 12:02:18;;;;;;;3.72;1.65;;;;;;;;;;5068311;28;20036;-65
2021/04/25 12:04:44;;;;;;;1.65;1.13;;;;;;;;;;5068647;28;20047;-65
2021/04/25 12:07:10;;;;;;;2.75;1.40;;;;;;;;;;5068161;28;20028;-65
2021/04/25 12:09:37;;;;;;;2.65;1.52;;;;;;;;;;5067654;28;20469;-65
2021/04/25 12:12:08;;;;;;;5.03;1.88;;;;;;;;;;5068773;28;20028;-65
2021/04/25 12:14:34;;;;;;;5.70;1.63;;;;;;;;;;5055093;28;20025;-65
2021/04/25 12:17:11;;;;;;;3.67;1.45;;;;;;;;;;5055270;28;20029;-64
2021/04/25 12:19:37;;;;;;;6.55;1.88;;;;;;;;;;5053885;28;20024;-64
2021/04/25 12:22:04;;;;;;;5.75;1.95;;;;;;;;;;5054853;28;20451;-65
2021/04/25 12:24:30;;;;;;;2.35;1.10;;;;;;;;;;5055121;28;20021;-65
2021/04/25 12:26:56;;;;;;;3.88;1.80;;;;;;;;;;5053696;28;20060;-64
2021/04/25 12:29:35;;;;;;;3.05;1.42;;;;;;;;;;5054789;28;20017;-64
2021/04/25 12:32:02;;;;;;;4.93;2.03;;;;;;;;;;5053846;28;20450;-65
2021/04/25 12:34:29;;;;;;;3.33;1.15;;;;;;;;;;5053857;28;20024;-65
2021/04/25 12:36:58;;;;;;;3.83;1.40;;;;;;;;;;5054510;28;20025;-65
2021/04/25 12:39:24;;;;;;;2.88;1.15;;;;;;;;;;5053374;28;20017;-65
2021/04/25 12:41:52;;;;;;;2.47;1.23;;;;;;;;;;5054293;28;20393;-65
2021/04/25 12:44:20;;;;;;;1.85;1.00;;;;;;;;;;5054701;28;20063;-65
2021/04/25 12:46:57;;;;;;;1.77;0.85;;;;;;;;;;5053336;28;20025;-65
2021/04/25 12:49:43;;;;;;;3.08;1.27;;;;;;;;;;5054279;28;20063;-65
2021/04/25 12:52:14;;;;;;;2.50;1.15;;;;;;;;;;5053400;28;20021;-65
2021/04/25 12:54:41;;;;;;;2.97;1.40;;;;;;;;;;5054683;28;20377;-65
2021/04/25 12:57:07;;;;;;;2.92;1.10;;;;;;;;;;5052809;28;20412;-65
2021/04/25 12:59:35;;;;;;;1.10;0.77;;;;;;;;;;5054620;28;20031;-65
2021/04/25 13:02:01;;;;;;;4.93;1.83;;;;;;;;;;5054063;28;20037;-65
2021/04/25 13:04:34;;;;;;;6.82;2.50;;;;;;;;;;5052674;28;20051;-65
2021/04/25 13:07:16;;;;;;;5.03;2.30;;;;;;;;;;5054480;28;20025;-65
2021/04/25 13:09:46;;;;;;;1.77;0.98;;;;;;;;;;5053935;28;20449;-65
2021/04/25 13:12:20;;;;;;;1.73;0.73;;;;;;;;;;5054186;28;20047;-65
2021/04/25 13:17:26;;;;;;;4.22;2.28;;;;;;;;;;5054083;28;20060;-65
2021/04/25 13:19:53;;;;;;;5.35;3.25;;;;;;;;;;5053000;28;20025;-66
2021/04/25 13:22:19;;;;;;;2.55;1.40;;;;;;;;;;5052734;28;20040;-65
2021/04/25 13:24:46;;;;;;;4.43;1.70;;;;;;;;;;5052798;28;20025;-65
2021/04/25 13:27:14;;;;;;;4.55;1.67;;;;;;;;;;5052544;28;20112;-65
2021/04/25 13:29:41;;;;;;;2.88;1.38;;;;;;;;;;5053643;28;20341;-65
2021/04/25 13:32:07;;;;;;;2.42;1.15;;;;;;;;;;5053380;28;20021;-65
2021/04/25 13:34:33;;;;;;;3.08;1.65;;;;;;;;;;5052411;28;20025;-65
2021/04/25 13:36:59;;;;;;;3.20;1.20;;;;;;;;;;5053668;28;20481;-65
2021/04/25 13:39:26;;;;;;;2.08;0.93;;;;;;;;;;5053310;28;20036;-65
2021/04/25 13:41:52;;;;;;;2.92;1.35;;;;;;;;;;5053488;28;20048;-65
2021/04/25 13:44:20;;;;;;;2.55;1.10;;;;;;;;;;5053783;28;20017;-65
2021/04/25 13:46:46;;;;;;;2.17;1.00;;;;;;;;;;5053290;28;20072;-65
2021/04/25 13:49:12;;;;;;;2.63;1.60;;;;;;;;;;5053575;28;20416;-65
2021/04/25 13:51:39;;;;;;;2.63;1.10;;;;;;;;;;5053332;28;20021;-65
2021/04/25 13:54:06;;;;;;;8.27;1.90;;;;;;;;;;5051348;28;20017;-65
2021/04/25 13:56:33;;;;;;;3.15;1.50;;;;;;;;;;5051637;28;20100;-65
2021/04/25 13:58:59;;;;;;;2.25;1.05;;;;;;;;;;5051750;28;20469;-66
2021/04/25 14:01:26;;;;;;;2.53;1.10;;;;;;;;;;5050002;28;20151;-66
2021/04/25 14:03:52;;;;;;;6.47;1.67;;;;;;;;;;5050523;28;20048;-65
2021/04/25 14:06:18;;;;;;;2.95;1.58;;;;;;;;;;5052392;28;20070;-65
2021/04/25 14:08:44;;;;;;;3.33;1.55;;;;;;;;;;5052253;28;20035;-65
2021/04/25 14:11:14;;;;;;;2.88;1.08;;;;;;;;;;5052840;28;20123;-65
2021/04/25 14:13:40;;;;;;;1.27;0.90;;;;;;;;;;5052558;28;20024;-65
2021/04/25 14:16:07;;;;;;;3.47;1.20;;;;;;;;;;5053025;28;20024;-66
2021/04/25 14:18:33;;;;;;;3.55;1.60;;;;;;;;;;5053035;28;20025;-65
2021/04/25 14:21:01;;;;;;;2.05;1.25;;;;;;;;;;5051182;28;20461;-65
2021/04/25 14:23:27;;;;;;;1.55;0.98;;;;;;;;;;5051843;28;20040;-65
2021/04/25 14:25:54;;;;;;;1.35;0.80;;;;;;;;;;5051586;28;20112;-65
2021/04/25 14:28:20;;;;;;;1.60;0.90;;;;;;;;;;5052531;28;20491;-66
2021/04/25 14:30:47;;;;;;;3.28;1.02;;;;;;;;;;5052802;28;20064;-65
2021/04/25 14:33:14;;;;;;;1.90;0.95;;;;;;;;;;5052874;28;20021;-65
2021/04/25 14:35:40;;;;;;;3.05;1.00;;;;;;;;;;5052229;28;20103;-65
2021/04/25 14:38:06;;;;;;;1.45;0.80;;;;;;;;;;5052647;28;20050;-65
2021/04/25 14:40:33;;;;;;;1.92;0.98;;;;;;;;;;5051528;28;20074;-65
2021/04/25 14:43:01;;;;;;;3.58;0.85;;;;;;;;;;5052386;28;20067;-65
2021/04/25 14:45:28;;;;;;;3.42;1.52;;;;;;;;;;5052502;28;20454;-65
2021/04/25 14:47:55;;;;;;;7.55;1.80;;;;;;;;;;5052464;28;20094;-66
2021/04/25 14:50:23;;;;;;;4.22;1.15;;;;;;;;;;5052120;28;20381;-65
2021/04/25 14:52:49;;;;;;;3.58;1.20;;;;;;;;;;5052504;28;20448;-66
2021/04/25 14:55:16;;;;;;;1.75;1.00;;;;;;;;;;5052247;28;20024;-65
2021/04/25 14:57:43;;;;;;;5.60;1.75;;;;;;;;;;5052217;28;20434;-65
2021/04/25 15:00:10;;;;;;;3.25;1.00;;;;;;;;;;5052547;28;20032;-65
2021/04/25 15:02:37;;;;;;;7.75;1.42;;;;;;;;;;5051835;28;20635;-65
2021/04/25 15:05:04;;;;;;;3.55;1.05;;;;;;;;;;5052303;28;20025;-65
2021/04/25 15:07:31;;;;;;;1.92;0.90;;;;;;;;;;5052207;28;20025;-65
2021/04/25 15:09:59;;;;;;;1.77;1.10;;;;;;;;;;5051950;28;20036;-65
2021/04/25 15:12:26;;;;;;;3.50;1.30;;;;;;;;;;5050995;28;20435;-66
2021/04/25 15:14:52;;;;;;;2.03;0.90;;;;;;;;;;5052364;28;20540;-66
2021/04/25 15:17:18;;;;;;;3.92;1.65;;;;;;;;;;5052200;28;20451;-65
2021/04/25 15:19:44;;;;;;;2.10;1.10;;;;;;;;;;5052415;28;20021;-66
2021/04/25 15:22:10;;;;;;;2.53;1.50;;;;;;;;;;5050972;28;20095;-66
2021/04/25 15:24:36;;;;;;;9.45;1.90;;;;;;;;;;5051829;28;20025;-65
2021/04/25 15:27:03;;;;;;;4.38;1.85;;;;;;;;;;5052144;28;20031;-65
2021/04/25 15:29:29;;;;;;;7.88;1.73;;;;;;;;;;5052071;28;20017;-65
2021/04/25 15:31:56;;;;;;;3.70;1.40;;;;;;;;;;5051688;28;20021;-66
2021/04/25 15:34:22;;;;;;;3.05;1.55;;;;;;;;;;5052010;28;20385;-66